OB185 SPJC-SPSO
Flight info
| Callsign | OB185 |
|---|---|
| Flight time | 1h 16m |
| Altitude | 6000 |
| Route | ASOXI DCT GEBED DCT MUMOP |
| Aircraft | C172/L-SFG/C |
Departure
| Time | 2026-05-08 00:24 |
|---|---|
| Airport | Jorge Chávez International Airport (SPJC) |
Arrival
| Time | 2026-05-08 01:41 |
|---|---|
| Airport | Captain Renán Elías Olivera International Airport (SPSO) |
| Time | Latitude | Longitude | Altitude | Speed | Heading |
|---|---|---|---|---|---|
| 2026-05-08 00:06 | -12.03336 | -77.10548 | 122 ft | 0 kts | 334° |
| 2026-05-08 00:09 | -12.03323 | -77.10555 | 122 ft | 2 kts | 353° |
| 2026-05-08 00:09 | -12.03310 | -77.10574 | 122 ft | 6 kts | 237° |
| 2026-05-08 00:09 | -12.03336 | -77.10628 | 122 ft | 10 kts | 240° |
| 2026-05-08 00:09 | -12.03326 | -77.10661 | 122 ft | 4 kts | 332° |
| 2026-05-08 00:10 | -12.03288 | -77.10678 | 121 ft | 7 kts | 329° |
| 2026-05-08 00:10 | -12.03229 | -77.10709 | 121 ft | 11 kts | 335° |
| 2026-05-08 00:10 | -12.03156 | -77.10745 | 122 ft | 12 kts | 335° |
| 2026-05-08 00:10 | -12.03073 | -77.10786 | 121 ft | 13 kts | 333° |
| 2026-05-08 00:11 | -12.02983 | -77.10831 | 121 ft | 14 kts | 333° |
| 2026-05-08 00:11 | -12.02885 | -77.10879 | 121 ft | 16 kts | 333° |
| 2026-05-08 00:11 | -12.02787 | -77.10928 | 121 ft | 15 kts | 330° |
| 2026-05-08 00:11 | -12.02685 | -77.10976 | 121 ft | 16 kts | 334° |
| 2026-05-08 00:12 | -12.02581 | -77.11028 | 122 ft | 17 kts | 332° |
| 2026-05-08 00:12 | -12.02469 | -77.11083 | 122 ft | 17 kts | 333° |
| 2026-05-08 00:12 | -12.02354 | -77.11140 | 122 ft | 18 kts | 335° |
| 2026-05-08 00:12 | -12.02238 | -77.11198 | 121 ft | 19 kts | 334° |
| 2026-05-08 00:13 | -12.02116 | -77.11258 | 122 ft | 19 kts | 334° |
| 2026-05-08 00:13 | -12.01993 | -77.11320 | 122 ft | 19 kts | 337° |
| 2026-05-08 00:13 | -12.01869 | -77.11380 | 122 ft | 19 kts | 333° |
| 2026-05-08 00:13 | -12.01742 | -77.11442 | 122 ft | 20 kts | 330° |
| 2026-05-08 00:14 | -12.01615 | -77.11504 | 122 ft | 20 kts | 331° |
| 2026-05-08 00:14 | -12.01487 | -77.11570 | 122 ft | 20 kts | 333° |
| 2026-05-08 00:14 | -12.01357 | -77.11633 | 122 ft | 20 kts | 334° |
| 2026-05-08 00:14 | -12.01227 | -77.11697 | 122 ft | 20 kts | 339° |
| 2026-05-08 00:15 | -12.01095 | -77.11762 | 122 ft | 20 kts | 329° |
| 2026-05-08 00:15 | -12.00966 | -77.11825 | 122 ft | 20 kts | 330° |
| 2026-05-08 00:15 | -12.00840 | -77.11885 | 122 ft | 16 kts | 332° |
| 2026-05-08 00:15 | -12.00755 | -77.11928 | 122 ft | 11 kts | 334° |
| 2026-05-08 00:16 | -12.00702 | -77.11955 | 122 ft | 5 kts | 327° |
| 2026-05-08 00:16 | -12.00681 | -77.11979 | 122 ft | 5 kts | 291° |
| 2026-05-08 00:16 | -12.00678 | -77.12016 | 122 ft | 3 kts | 262° |
| 2026-05-08 00:16 | -12.00679 | -77.12023 | 122 ft | 0 kts | 256° |
| 2026-05-08 00:17 | -12.00681 | -77.12031 | 122 ft | 3 kts | 253° |
| 2026-05-08 00:17 | -12.00687 | -77.12047 | 122 ft | 1 kts | 242° |
| 2026-05-08 00:17 | -12.00691 | -77.12054 | 122 ft | 0 kts | 241° |
| 2026-05-08 00:20 | -12.00701 | -77.12073 | 122 ft | 0 kts | 234° |
| 2026-05-08 00:21 | -12.00702 | -77.12073 | 122 ft | 0 kts | 231° |
| 2026-05-08 00:22 | -12.00714 | -77.12090 | 121 ft | 6 kts | 225° |
| 2026-05-08 00:22 | -12.00748 | -77.12103 | 122 ft | 4 kts | 176° |
| 2026-05-08 00:22 | -12.00773 | -77.12105 | 121 ft | 2 kts | 185° |
| 2026-05-08 00:22 | -12.00788 | -77.12106 | 121 ft | 2 kts | 181° |
| 2026-05-08 00:23 | -12.00830 | -77.12101 | 121 ft | 5 kts | 159° |
| 2026-05-08 00:23 | -12.00916 | -77.12058 | 122 ft | 37 kts | 153° |
| 2026-05-08 00:23 | -12.01288 | -77.11884 | 158 ft | 71 kts | 156° |
| 2026-05-08 00:23 | -12.01724 | -77.11674 | 341 ft | 73 kts | 154° |
| 2026-05-08 00:24 | -12.02177 | -77.11410 | 548 ft | 71 kts | 148° |
| 2026-05-08 00:24 | -12.02616 | -77.11156 | 720 ft | 74 kts | 150° |
| 2026-05-08 00:24 | -12.03129 | -77.10992 | 824 ft | 84 kts | 173° |
| 2026-05-08 00:24 | -12.03713 | -77.11026 | 986 ft | 86 kts | 188° |
| 2026-05-08 00:25 | -12.04297 | -77.11200 | 1154 ft | 86 kts | 194° |
| 2026-05-08 00:25 | -12.04872 | -77.11394 | 1323 ft | 87 kts | 195° |
| 2026-05-08 00:25 | -12.05445 | -77.11585 | 1489 ft | 87 kts | 194° |
| 2026-05-08 00:25 | -12.06023 | -77.11780 | 1657 ft | 87 kts | 193° |
| 2026-05-08 00:26 | -12.06602 | -77.11975 | 1825 ft | 87 kts | 193° |
| 2026-05-08 00:26 | -12.07078 | -77.12370 | 1974 ft | 93 kts | 234° |
| 2026-05-08 00:26 | -12.07456 | -77.12880 | 2151 ft | 88 kts | 204° |
| 2026-05-08 00:26 | -12.08007 | -77.13111 | 2324 ft | 86 kts | 192° |
| 2026-05-08 00:27 | -12.08578 | -77.13300 | 2493 ft | 85 kts | 188° |
| 2026-05-08 00:27 | -12.09153 | -77.13434 | 2656 ft | 85 kts | 189° |
| 2026-05-08 00:27 | -12.09721 | -77.13607 | 2814 ft | 85 kts | 192° |
| 2026-05-08 00:27 | -12.10290 | -77.13794 | 2980 ft | 85 kts | 192° |
| 2026-05-08 00:28 | -12.10853 | -77.13978 | 3147 ft | 85 kts | 193° |
| 2026-05-08 00:28 | -12.11425 | -77.14152 | 3313 ft | 84 kts | 181° |
| 2026-05-08 00:28 | -12.11982 | -77.14294 | 3471 ft | 85 kts | 208° |
| 2026-05-08 00:28 | -12.12407 | -77.14721 | 3634 ft | 84 kts | 211° |
| 2026-05-08 00:29 | -12.12932 | -77.14832 | 3821 ft | 76 kts | 158° |
| 2026-05-08 00:29 | -12.13413 | -77.14639 | 3994 ft | 72 kts | 147° |
| 2026-05-08 00:29 | -12.13861 | -77.14415 | 4159 ft | 70 kts | 145° |
| 2026-05-08 00:29 | -12.14190 | -77.14101 | 4333 ft | 62 kts | 114° |
| 2026-05-08 00:30 | -12.14393 | -77.13721 | 4443 ft | 68 kts | 105° |
| 2026-05-08 00:30 | -12.14659 | -77.12976 | 3789 ft | 132 kts | 112° |
| 2026-05-08 00:30 | -12.15017 | -77.12178 | 3884 ft | 119 kts | 112° |
| 2026-05-08 00:30 | -12.15360 | -77.11430 | 3927 ft | 114 kts | 112° |
| 2026-05-08 00:31 | -12.15695 | -77.10691 | 3973 ft | 112 kts | 111° |
| 2026-05-08 00:31 | -12.16024 | -77.09972 | 4017 ft | 111 kts | 112° |
| 2026-05-08 00:31 | -12.16347 | -77.09263 | 4103 ft | 107 kts | 111° |
| 2026-05-08 00:31 | -12.16651 | -77.08596 | 4221 ft | 102 kts | 111° |
| 2026-05-08 00:32 | -12.16951 | -77.07945 | 4339 ft | 99 kts | 111° |
| 2026-05-08 00:32 | -12.17245 | -77.07313 | 4455 ft | 97 kts | 111° |
| 2026-05-08 00:32 | -12.17531 | -77.06690 | 4571 ft | 96 kts | 111° |
| 2026-05-08 00:32 | -12.17814 | -77.06071 | 4687 ft | 95 kts | 111° |
| 2026-05-08 00:33 | -12.18094 | -77.05464 | 4810 ft | 94 kts | 111° |
| 2026-05-08 00:33 | -12.18372 | -77.04862 | 4932 ft | 93 kts | 111° |
| 2026-05-08 00:33 | -12.18647 | -77.04257 | 5052 ft | 93 kts | 111° |
| 2026-05-08 00:33 | -12.18920 | -77.03657 | 5172 ft | 92 kts | 111° |
| 2026-05-08 00:34 | -12.19194 | -77.03059 | 5291 ft | 92 kts | 111° |
| 2026-05-08 00:34 | -12.19464 | -77.02467 | 5407 ft | 92 kts | 111° |
| 2026-05-08 00:34 | -12.19731 | -77.01876 | 5520 ft | 91 kts | 111° |
| 2026-05-08 00:34 | -12.20058 | -77.01318 | 5627 ft | 93 kts | 128° |
| 2026-05-08 00:35 | -12.20487 | -77.00829 | 5740 ft | 92 kts | 128° |
| 2026-05-08 00:35 | -12.20914 | -77.00346 | 5850 ft | 92 kts | 128° |
| 2026-05-08 00:35 | -12.21344 | -76.99866 | 5968 ft | 91 kts | 128° |
| 2026-05-08 00:35 | -12.21790 | -76.99362 | 5990 ft | 101 kts | 128° |
| 2026-05-08 00:36 | -12.22274 | -76.98798 | 5997 ft | 107 kts | 126° |
| 2026-05-08 00:36 | -12.22672 | -76.98136 | 6001 ft | 113 kts | 111° |
| 2026-05-08 00:36 | -12.22874 | -76.97347 | 5977 ft | 112 kts | 98° |
| 2026-05-08 00:36 | -12.22998 | -76.96585 | 5966 ft | 106 kts | 97° |
| 2026-05-08 00:37 | -12.23108 | -76.95863 | 5969 ft | 100 kts | 94° |
| 2026-05-08 00:37 | -12.23128 | -76.95167 | 5963 ft | 98 kts | 107° |
| 2026-05-08 00:37 | -12.23505 | -76.94586 | 5968 ft | 98 kts | 132° |
| 2026-05-08 00:38 | -12.24742 | -76.94005 | 5974 ft | 98 kts | 157° |
| 2026-05-08 00:38 | -12.25390 | -76.93767 | 5971 ft | 98 kts | 157° |
| 2026-05-08 00:38 | -12.26032 | -76.93536 | 5971 ft | 98 kts | 157° |
| 2026-05-08 00:38 | -12.26682 | -76.93301 | 5971 ft | 97 kts | 157° |
| 2026-05-08 00:39 | -12.27319 | -76.93072 | 5972 ft | 97 kts | 157° |
| 2026-05-08 00:39 | -12.27963 | -76.92837 | 5970 ft | 97 kts | 157° |
| 2026-05-08 00:39 | -12.28601 | -76.92605 | 5972 ft | 96 kts | 156° |
| 2026-05-08 00:39 | -12.29123 | -76.92204 | 5975 ft | 94 kts | 136° |
| 2026-05-08 00:40 | -12.29715 | -76.91900 | 5982 ft | 96 kts | 155° |
| 2026-05-08 00:40 | -12.30348 | -76.91660 | 5969 ft | 97 kts | 157° |
| 2026-05-08 00:40 | -12.30987 | -76.91424 | 5967 ft | 96 kts | 156° |
| 2026-05-08 00:40 | -12.31619 | -76.91190 | 5954 ft | 94 kts | 154° |
| 2026-05-08 00:41 | -12.32195 | -76.90908 | 5981 ft | 91 kts | 149° |
| 2026-05-08 00:41 | -12.32761 | -76.90608 | 5983 ft | 91 kts | 148° |
| 2026-05-08 00:41 | -12.33329 | -76.90302 | 5991 ft | 92 kts | 148° |
| 2026-05-08 00:41 | -12.33912 | -76.89988 | 5977 ft | 94 kts | 148° |
| 2026-05-08 00:42 | -12.34486 | -76.89675 | 5985 ft | 92 kts | 148° |
| 2026-05-08 00:42 | -12.35062 | -76.89368 | 6001 ft | 94 kts | 149° |
| 2026-05-08 00:42 | -12.35649 | -76.89051 | 5995 ft | 95 kts | 148° |
| 2026-05-08 00:42 | -12.36244 | -76.88731 | 5978 ft | 95 kts | 148° |
| 2026-05-08 00:43 | -12.36804 | -76.88390 | 5992 ft | 93 kts | 141° |
| 2026-05-08 00:43 | -12.37340 | -76.87997 | 5995 ft | 94 kts | 141° |
| 2026-05-08 00:43 | -12.37870 | -76.87601 | 5999 ft | 95 kts | 140° |
| 2026-05-08 00:43 | -12.38415 | -76.87193 | 5994 ft | 96 kts | 140° |
| 2026-05-08 00:44 | -12.38960 | -76.86787 | 5984 ft | 96 kts | 140° |
| 2026-05-08 00:44 | -12.39509 | -76.86410 | 5975 ft | 94 kts | 154° |
| 2026-05-08 00:44 | -12.40106 | -76.86143 | 6005 ft | 92 kts | 143° |
| 2026-05-08 00:44 | -12.40639 | -76.85764 | 6005 ft | 95 kts | 141° |
| 2026-05-08 00:45 | -12.41181 | -76.85358 | 6002 ft | 97 kts | 140° |
| 2026-05-08 00:45 | -12.41734 | -76.84945 | 5989 ft | 98 kts | 140° |
| 2026-05-08 00:45 | -12.42294 | -76.84521 | 5991 ft | 99 kts | 140° |
| 2026-05-08 00:45 | -12.42848 | -76.84100 | 5979 ft | 100 kts | 140° |
| 2026-05-08 00:46 | -12.43424 | -76.83662 | 5968 ft | 104 kts | 140° |
| 2026-05-08 00:46 | -12.44006 | -76.83220 | 5958 ft | 103 kts | 140° |
| 2026-05-08 00:46 | -12.44581 | -76.82784 | 5976 ft | 102 kts | 140° |
| 2026-05-08 00:46 | -12.45163 | -76.82344 | 5967 ft | 102 kts | 140° |
| 2026-05-08 00:47 | -12.45731 | -76.81910 | 5991 ft | 103 kts | 140° |
| 2026-05-08 00:47 | -12.46315 | -76.81464 | 5984 ft | 106 kts | 140° |
| 2026-05-08 00:47 | -12.46911 | -76.81012 | 5990 ft | 105 kts | 140° |
| 2026-05-08 00:47 | -12.47506 | -76.80563 | 5975 ft | 106 kts | 140° |
| 2026-05-08 00:48 | -12.48089 | -76.80119 | 5982 ft | 104 kts | 140° |
| 2026-05-08 00:48 | -12.48678 | -76.79669 | 5977 ft | 104 kts | 140° |
| 2026-05-08 00:48 | -12.49260 | -76.79229 | 5967 ft | 103 kts | 140° |
| 2026-05-08 00:48 | -12.49832 | -76.78796 | 5986 ft | 102 kts | 140° |
| 2026-05-08 00:49 | -12.50413 | -76.78352 | 5996 ft | 104 kts | 140° |
| 2026-05-08 00:49 | -12.51000 | -76.77902 | 5981 ft | 105 kts | 140° |
| 2026-05-08 00:49 | -12.51593 | -76.77446 | 5998 ft | 107 kts | 140° |
| 2026-05-08 00:49 | -12.52187 | -76.76990 | 5981 ft | 107 kts | 140° |
| 2026-05-08 00:50 | -12.52786 | -76.76532 | 6008 ft | 107 kts | 140° |
| 2026-05-08 00:50 | -12.53403 | -76.76081 | 5994 ft | 110 kts | 143° |
| 2026-05-08 00:50 | -12.54040 | -76.75639 | 5961 ft | 109 kts | 143° |
| 2026-05-08 00:50 | -12.54654 | -76.75216 | 5965 ft | 104 kts | 143° |
| 2026-05-08 00:51 | -12.55258 | -76.74805 | 5995 ft | 104 kts | 142° |
| 2026-05-08 00:51 | -12.55875 | -76.74385 | 5983 ft | 106 kts | 143° |
| 2026-05-08 00:51 | -12.56483 | -76.73968 | 5976 ft | 104 kts | 143° |
| 2026-05-08 00:51 | -12.57082 | -76.73559 | 5990 ft | 103 kts | 143° |
| 2026-05-08 00:52 | -12.57686 | -76.73146 | 5993 ft | 103 kts | 143° |
| 2026-05-08 00:52 | -12.58294 | -76.72733 | 6013 ft | 105 kts | 143° |
| 2026-05-08 00:52 | -12.58905 | -76.72315 | 6000 ft | 107 kts | 143° |
| 2026-05-08 00:52 | -12.59520 | -76.71893 | 5995 ft | 105 kts | 143° |
| 2026-05-08 00:53 | -12.60136 | -76.71469 | 6001 ft | 105 kts | 143° |
| 2026-05-08 00:53 | -12.60742 | -76.71052 | 5996 ft | 105 kts | 142° |
| 2026-05-08 00:53 | -12.61341 | -76.70640 | 5997 ft | 102 kts | 143° |
| 2026-05-08 00:53 | -12.61937 | -76.70230 | 6022 ft | 102 kts | 143° |
| 2026-05-08 00:54 | -12.62533 | -76.69822 | 6022 ft | 104 kts | 143° |
| 2026-05-08 00:54 | -12.63142 | -76.69402 | 6028 ft | 106 kts | 143° |
| 2026-05-08 00:54 | -12.63759 | -76.68975 | 6016 ft | 107 kts | 143° |
| 2026-05-08 00:54 | -12.64380 | -76.68548 | 6008 ft | 105 kts | 143° |
| 2026-05-08 00:55 | -12.64984 | -76.68132 | 6035 ft | 105 kts | 143° |
| 2026-05-08 00:55 | -12.65595 | -76.67709 | 6017 ft | 106 kts | 142° |
| 2026-05-08 00:55 | -12.66168 | -76.67230 | 6027 ft | 105 kts | 136° |
| 2026-05-08 00:55 | -12.66734 | -76.66755 | 6035 ft | 106 kts | 138° |
| 2026-05-08 00:56 | -12.67329 | -76.66284 | 6038 ft | 109 kts | 140° |
| 2026-05-08 00:56 | -12.67950 | -76.65817 | 6011 ft | 109 kts | 141° |
| 2026-05-08 00:56 | -12.68574 | -76.65367 | 6010 ft | 109 kts | 142° |
| 2026-05-08 00:56 | -12.69201 | -76.64925 | 5993 ft | 108 kts | 143° |
| 2026-05-08 00:57 | -12.69822 | -76.64498 | 6004 ft | 107 kts | 143° |
| 2026-05-08 00:57 | -12.70441 | -76.64077 | 6001 ft | 106 kts | 143° |
| 2026-05-08 00:57 | -12.71064 | -76.63659 | 6006 ft | 106 kts | 143° |
| 2026-05-08 00:57 | -12.71678 | -76.63250 | 5993 ft | 104 kts | 143° |
| 2026-05-08 00:58 | -12.72279 | -76.62850 | 6005 ft | 102 kts | 144° |
| 2026-05-08 00:58 | -12.72885 | -76.62450 | 5995 ft | 102 kts | 143° |
| 2026-05-08 00:58 | -12.73476 | -76.62060 | 6024 ft | 101 kts | 143° |
| 2026-05-08 00:58 | -12.74086 | -76.61659 | 6015 ft | 104 kts | 144° |
| 2026-05-08 00:59 | -12.74694 | -76.61260 | 6036 ft | 106 kts | 144° |
| 2026-05-08 00:59 | -12.75333 | -76.60844 | 6017 ft | 108 kts | 144° |
| 2026-05-08 00:59 | -12.75970 | -76.60424 | 5999 ft | 108 kts | 144° |
| 2026-05-08 00:59 | -12.76606 | -76.60031 | 6017 ft | 106 kts | 147° |
| 2026-05-08 01:00 | -12.77266 | -76.59661 | 5987 ft | 107 kts | 148° |
| 2026-05-08 01:00 | -12.77925 | -76.59319 | 5998 ft | 104 kts | 150° |
| 2026-05-08 01:00 | -12.78569 | -76.59003 | 6014 ft | 103 kts | 151° |
| 2026-05-08 01:00 | -12.79233 | -76.58692 | 6013 ft | 103 kts | 152° |
| 2026-05-08 01:01 | -12.79892 | -76.58395 | 6028 ft | 103 kts | 152° |
| 2026-05-08 01:01 | -12.80564 | -76.58099 | 6030 ft | 105 kts | 153° |
| 2026-05-08 01:01 | -12.81249 | -76.57804 | 6027 ft | 107 kts | 154° |
| 2026-05-08 01:01 | -12.81938 | -76.57513 | 6017 ft | 107 kts | 154° |
| 2026-05-08 01:02 | -12.82626 | -76.57226 | 6019 ft | 106 kts | 154° |
| 2026-05-08 01:02 | -12.83317 | -76.56939 | 6035 ft | 107 kts | 154° |
| 2026-05-08 01:02 | -12.84022 | -76.56650 | 6034 ft | 109 kts | 155° |
| 2026-05-08 01:02 | -12.84737 | -76.56358 | 6029 ft | 110 kts | 154° |
| 2026-05-08 01:03 | -12.85455 | -76.56067 | 6021 ft | 111 kts | 155° |
| 2026-05-08 01:03 | -12.86175 | -76.55776 | 6007 ft | 110 kts | 154° |
| 2026-05-08 01:03 | -12.86891 | -76.55487 | 6005 ft | 108 kts | 154° |
| 2026-05-08 01:03 | -12.87585 | -76.55206 | 6010 ft | 108 kts | 155° |
| 2026-05-08 01:04 | -12.88282 | -76.54924 | 6005 ft | 106 kts | 155° |
| 2026-05-08 01:04 | -12.88980 | -76.54641 | 6017 ft | 106 kts | 155° |
| 2026-05-08 01:04 | -12.89671 | -76.54362 | 6022 ft | 107 kts | 155° |
| 2026-05-08 01:04 | -12.90369 | -76.54079 | 6012 ft | 108 kts | 155° |
| 2026-05-08 01:05 | -12.91075 | -76.53796 | 6017 ft | 108 kts | 154° |
| 2026-05-08 01:05 | -12.91783 | -76.53511 | 6006 ft | 108 kts | 155° |
| 2026-05-08 01:05 | -12.92481 | -76.53230 | 6002 ft | 107 kts | 154° |
| 2026-05-08 01:05 | -12.93176 | -76.52950 | 6014 ft | 106 kts | 154° |
| 2026-05-08 01:06 | -12.93861 | -76.52673 | 6017 ft | 106 kts | 155° |
| 2026-05-08 01:06 | -12.94552 | -76.52394 | 6028 ft | 107 kts | 155° |
| 2026-05-08 01:06 | -12.95297 | -76.52262 | 6013 ft | 111 kts | 185° |
| 2026-05-08 01:06 | -12.96050 | -76.52193 | 6029 ft | 108 kts | 155° |
| 2026-05-08 01:07 | -12.96773 | -76.51917 | 6008 ft | 110 kts | 160° |
| 2026-05-08 01:07 | -12.97507 | -76.51693 | 6006 ft | 110 kts | 159° |
| 2026-05-08 01:07 | -12.98246 | -76.51456 | 6002 ft | 110 kts | 158° |
| 2026-05-08 01:07 | -12.98977 | -76.51205 | 5993 ft | 109 kts | 157° |
| 2026-05-08 01:08 | -12.99686 | -76.50951 | 5983 ft | 108 kts | 157° |
| 2026-05-08 01:08 | -13.00395 | -76.50690 | 5988 ft | 107 kts | 156° |
| 2026-05-08 01:08 | -13.01091 | -76.50426 | 5997 ft | 106 kts | 156° |
| 2026-05-08 01:08 | -13.01792 | -76.50156 | 6012 ft | 108 kts | 155° |
| 2026-05-08 01:09 | -13.02506 | -76.49877 | 5996 ft | 109 kts | 155° |
| 2026-05-08 01:09 | -13.03211 | -76.49602 | 5992 ft | 107 kts | 155° |
| 2026-05-08 01:09 | -13.03911 | -76.49327 | 6009 ft | 107 kts | 155° |
| 2026-05-08 01:09 | -13.04619 | -76.49052 | 6024 ft | 110 kts | 155° |
| 2026-05-08 01:10 | -13.05343 | -76.48768 | 6020 ft | 112 kts | 155° |
| 2026-05-08 01:10 | -13.06079 | -76.48477 | 5996 ft | 112 kts | 155° |
| 2026-05-08 01:10 | -13.06804 | -76.48192 | 5996 ft | 110 kts | 155° |
| 2026-05-08 01:10 | -13.07512 | -76.47909 | 6007 ft | 110 kts | 155° |
| 2026-05-08 01:11 | -13.08237 | -76.47620 | 5981 ft | 109 kts | 155° |
| 2026-05-08 01:11 | -13.08927 | -76.47343 | 5995 ft | 106 kts | 154° |
| 2026-05-08 01:11 | -13.09614 | -76.47066 | 6007 ft | 106 kts | 155° |
| 2026-05-08 01:11 | -13.10308 | -76.46787 | 6008 ft | 106 kts | 154° |
| 2026-05-08 01:12 | -13.11004 | -76.46506 | 6006 ft | 106 kts | 154° |
| 2026-05-08 01:12 | -13.11694 | -76.46228 | 6018 ft | 106 kts | 154° |
| 2026-05-08 01:12 | -13.12387 | -76.45948 | 6024 ft | 108 kts | 155° |
| 2026-05-08 01:12 | -13.13101 | -76.45660 | 6013 ft | 109 kts | 154° |
| 2026-05-08 01:13 | -13.13808 | -76.45375 | 6006 ft | 108 kts | 154° |
| 2026-05-08 01:13 | -13.14512 | -76.45092 | 6008 ft | 107 kts | 154° |
| 2026-05-08 01:13 | -13.15201 | -76.44815 | 6016 ft | 106 kts | 155° |
| 2026-05-08 01:13 | -13.15891 | -76.44536 | 6039 ft | 107 kts | 155° |
| 2026-05-08 01:14 | -13.16603 | -76.44247 | 6043 ft | 110 kts | 155° |
| 2026-05-08 01:14 | -13.17326 | -76.43957 | 6021 ft | 112 kts | 155° |
| 2026-05-08 01:14 | -13.18058 | -76.43663 | 6013 ft | 111 kts | 155° |
| 2026-05-08 01:14 | -13.18777 | -76.43375 | 6005 ft | 110 kts | 154° |
| 2026-05-08 01:15 | -13.19498 | -76.43085 | 6015 ft | 110 kts | 154° |
| 2026-05-08 01:15 | -13.20213 | -76.42796 | 6004 ft | 110 kts | 155° |
| 2026-05-08 01:15 | -13.20924 | -76.42509 | 6001 ft | 110 kts | 155° |
| 2026-05-08 01:15 | -13.21638 | -76.42220 | 6003 ft | 109 kts | 154° |
| 2026-05-08 01:16 | -13.22350 | -76.41934 | 5986 ft | 109 kts | 154° |
| 2026-05-08 01:16 | -13.23052 | -76.41650 | 6001 ft | 107 kts | 154° |
| 2026-05-08 01:16 | -13.23755 | -76.41366 | 5995 ft | 108 kts | 154° |
| 2026-05-08 01:16 | -13.24456 | -76.41083 | 5990 ft | 107 kts | 154° |
| 2026-05-08 01:17 | -13.25161 | -76.40797 | 5993 ft | 107 kts | 155° |
| 2026-05-08 01:17 | -13.25856 | -76.40515 | 5996 ft | 108 kts | 155° |
| 2026-05-08 01:17 | -13.26555 | -76.40234 | 5995 ft | 108 kts | 154° |
| 2026-05-08 01:17 | -13.27254 | -76.39951 | 5996 ft | 108 kts | 154° |
| 2026-05-08 01:18 | -13.27969 | -76.39664 | 6008 ft | 109 kts | 155° |
| 2026-05-08 01:18 | -13.28685 | -76.39380 | 6003 ft | 110 kts | 155° |
| 2026-05-08 01:18 | -13.29407 | -76.39102 | 5984 ft | 111 kts | 156° |
| 2026-05-08 01:18 | -13.30132 | -76.38824 | 5993 ft | 109 kts | 156° |
| 2026-05-08 01:19 | -13.30842 | -76.38550 | 5988 ft | 109 kts | 155° |
| 2026-05-08 01:19 | -13.31556 | -76.38270 | 5980 ft | 108 kts | 155° |
| 2026-05-08 01:19 | -13.32253 | -76.37993 | 5966 ft | 106 kts | 155° |
| 2026-05-08 01:19 | -13.32941 | -76.37719 | 5991 ft | 104 kts | 154° |
| 2026-05-08 01:20 | -13.33625 | -76.37442 | 5989 ft | 106 kts | 154° |
| 2026-05-08 01:20 | -13.34316 | -76.37163 | 5994 ft | 107 kts | 154° |
| 2026-05-08 01:20 | -13.35009 | -76.36884 | 5998 ft | 108 kts | 155° |
| 2026-05-08 01:20 | -13.35713 | -76.36601 | 5995 ft | 109 kts | 154° |
| 2026-05-08 01:21 | -13.36433 | -76.36311 | 5996 ft | 110 kts | 154° |
| 2026-05-08 01:21 | -13.37149 | -76.36022 | 5993 ft | 110 kts | 155° |
| 2026-05-08 01:21 | -13.37863 | -76.35735 | 5994 ft | 111 kts | 154° |
| 2026-05-08 01:21 | -13.38591 | -76.35440 | 5984 ft | 111 kts | 155° |
| 2026-05-08 01:22 | -13.39305 | -76.35153 | 5991 ft | 110 kts | 154° |
| 2026-05-08 01:22 | -13.40021 | -76.34865 | 5988 ft | 107 kts | 155° |
| 2026-05-08 01:22 | -13.40695 | -76.34598 | 5907 ft | 103 kts | 154° |
| 2026-05-08 01:22 | -13.41371 | -76.34328 | 5812 ft | 103 kts | 155° |
| 2026-05-08 01:23 | -13.42038 | -76.34061 | 5686 ft | 105 kts | 155° |
| 2026-05-08 01:23 | -13.42733 | -76.33783 | 5433 ft | 107 kts | 155° |
| 2026-05-08 01:23 | -13.43436 | -76.33503 | 5180 ft | 108 kts | 156° |
| 2026-05-08 01:23 | -13.44137 | -76.33222 | 4934 ft | 108 kts | 156° |
| 2026-05-08 01:24 | -13.44846 | -76.32936 | 4697 ft | 109 kts | 156° |
| 2026-05-08 01:24 | -13.45537 | -76.32658 | 4531 ft | 106 kts | 155° |
| 2026-05-08 01:24 | -13.46223 | -76.32378 | 4366 ft | 106 kts | 155° |
| 2026-05-08 01:24 | -13.46914 | -76.32098 | 4211 ft | 106 kts | 156° |
| 2026-05-08 01:25 | -13.47598 | -76.31823 | 4045 ft | 106 kts | 156° |
| 2026-05-08 01:25 | -13.48282 | -76.31544 | 3879 ft | 105 kts | 156° |
| 2026-05-08 01:25 | -13.48944 | -76.31277 | 3847 ft | 95 kts | 155° |
| 2026-05-08 01:25 | -13.49558 | -76.31023 | 3861 ft | 97 kts | 153° |
| 2026-05-08 01:26 | -13.50203 | -76.30753 | 3864 ft | 101 kts | 155° |
| 2026-05-08 01:26 | -13.50859 | -76.30483 | 3868 ft | 103 kts | 155° |
| 2026-05-08 01:26 | -13.51547 | -76.30204 | 3867 ft | 105 kts | 155° |
| 2026-05-08 01:26 | -13.52238 | -76.29926 | 3868 ft | 107 kts | 155° |
| 2026-05-08 01:27 | -13.52926 | -76.29649 | 3868 ft | 107 kts | 155° |
| 2026-05-08 01:27 | -13.53626 | -76.29366 | 3867 ft | 107 kts | 155° |
| 2026-05-08 01:27 | -13.54328 | -76.29082 | 3822 ft | 110 kts | 155° |
| 2026-05-08 01:27 | -13.55055 | -76.28792 | 3725 ft | 111 kts | 155° |
| 2026-05-08 01:28 | -13.55765 | -76.28507 | 3652 ft | 109 kts | 155° |
| 2026-05-08 01:28 | -13.56464 | -76.28227 | 3586 ft | 105 kts | 155° |
| 2026-05-08 01:28 | -13.57146 | -76.27977 | 3524 ft | 103 kts | 159° |
| 2026-05-08 01:28 | -13.57828 | -76.27730 | 3462 ft | 102 kts | 155° |
| 2026-05-08 01:29 | -13.58484 | -76.27468 | 3397 ft | 101 kts | 154° |
| 2026-05-08 01:29 | -13.59056 | -76.27258 | 3516 ft | 69 kts | 158° |
| 2026-05-08 01:29 | -13.59510 | -76.27006 | 3290 ft | 97 kts | 134° |
| 2026-05-08 01:29 | -13.59994 | -76.26395 | 3032 ft | 111 kts | 115° |
| 2026-05-08 01:30 | -13.60155 | -76.25670 | 2996 ft | 99 kts | 85° |
| 2026-05-08 01:30 | -13.60066 | -76.24957 | 2900 ft | 100 kts | 80° |
| 2026-05-08 01:30 | -13.59977 | -76.24252 | 2833 ft | 98 kts | 78° |
| 2026-05-08 01:30 | -13.59888 | -76.23554 | 2745 ft | 100 kts | 81° |
| 2026-05-08 01:31 | -13.59839 | -76.22857 | 2728 ft | 95 kts | 82° |
| 2026-05-08 01:31 | -13.59799 | -76.22160 | 2721 ft | 97 kts | 84° |
| 2026-05-08 01:31 | -13.59777 | -76.21464 | 2711 ft | 99 kts | 85° |
| 2026-05-08 01:31 | -13.59773 | -76.20749 | 2707 ft | 99 kts | 89° |
| 2026-05-08 01:32 | -13.59840 | -76.20041 | 2676 ft | 102 kts | 95° |
| 2026-05-08 01:32 | -13.59983 | -76.19327 | 2676 ft | 101 kts | 99° |
| 2026-05-08 01:32 | -13.60132 | -76.18607 | 2649 ft | 103 kts | 97° |
| 2026-05-08 01:32 | -13.60276 | -76.17890 | 2631 ft | 104 kts | 101° |
| 2026-05-08 01:33 | -13.60505 | -76.17157 | 2588 ft | 105 kts | 104° |
| 2026-05-08 01:33 | -13.60762 | -76.16455 | 2477 ft | 109 kts | 110° |
| 2026-05-08 01:33 | -13.61090 | -76.15748 | 2420 ft | 103 kts | 112° |
| 2026-05-08 01:33 | -13.61430 | -76.15112 | 2366 ft | 103 kts | 114° |
| 2026-05-08 01:34 | -13.61775 | -76.14456 | 2271 ft | 105 kts | 115° |
| 2026-05-08 01:34 | -13.62153 | -76.13806 | 2167 ft | 107 kts | 118° |
| 2026-05-08 01:34 | -13.62614 | -76.13194 | 2076 ft | 109 kts | 138° |
| 2026-05-08 01:34 | -13.63334 | -76.12938 | 1961 ft | 113 kts | 180° |
| 2026-05-08 01:35 | -13.64053 | -76.13184 | 1936 ft | 107 kts | 216° |
| 2026-05-08 01:35 | -13.64600 | -76.13664 | 1937 ft | 101 kts | 223° |
| 2026-05-08 01:35 | -13.65102 | -76.14092 | 2040 ft | 84 kts | 218° |
| 2026-05-08 01:35 | -13.65575 | -76.14475 | 2068 ft | 89 kts | 218° |
| 2026-05-08 01:36 | -13.65664 | -76.14545 | 2071 ft | 90 kts | 219° |
| 2026-05-08 01:36 | -13.65795 | -76.14651 | 2070 ft | 91 kts | 218° |
| 2026-05-08 01:36 | -13.66282 | -76.15093 | 2058 ft | 96 kts | 223° |
| 2026-05-08 01:36 | -13.66805 | -76.15523 | 2039 ft | 97 kts | 221° |
| 2026-05-08 01:37 | -13.67336 | -76.15963 | 1887 ft | 100 kts | 220° |
| 2026-05-08 01:37 | -13.67879 | -76.16432 | 1708 ft | 102 kts | 223° |
| 2026-05-08 01:37 | -13.68428 | -76.16911 | 1515 ft | 103 kts | 220° |
| 2026-05-08 01:37 | -13.68964 | -76.17370 | 1376 ft | 98 kts | 219° |
| 2026-05-08 01:38 | -13.69484 | -76.17810 | 1198 ft | 96 kts | 222° |
| 2026-05-08 01:38 | -13.69989 | -76.18250 | 988 ft | 94 kts | 222° |
| 2026-05-08 01:38 | -13.70461 | -76.18639 | 903 ft | 77 kts | 219° |
| 2026-05-08 01:38 | -13.70876 | -76.18990 | 779 ft | 77 kts | 218° |
| 2026-05-08 01:39 | -13.71298 | -76.19350 | 652 ft | 78 kts | 221° |
| 2026-05-08 01:39 | -13.71713 | -76.19702 | 526 ft | 77 kts | 219° |
| 2026-05-08 01:39 | -13.72126 | -76.20047 | 390 ft | 74 kts | 220° |
| 2026-05-08 01:39 | -13.72500 | -76.20364 | 314 ft | 66 kts | 218° |
| 2026-05-08 01:40 | -13.72855 | -76.20665 | 226 ft | 65 kts | 218° |
| 2026-05-08 01:40 | -13.73203 | -76.20959 | 155 ft | 62 kts | 218° |
| 2026-05-08 01:40 | -13.73533 | -76.21238 | 82 ft | 59 kts | 218° |
| 2026-05-08 01:40 | -13.73832 | -76.21491 | 59 ft | 51 kts | 217° |
| 2026-05-08 01:41 | -13.74066 | -76.21687 | 47 ft | 33 kts | 220° |
| 2026-05-08 01:41 | -13.74202 | -76.21802 | 46 ft | 14 kts | 218° |
| 2026-05-08 01:41 | -13.74247 | -76.21871 | 45 ft | 10 kts | 301° |
| 2026-05-08 01:41 | -13.74219 | -76.21922 | 44 ft | 6 kts | 299° |
| 2026-05-08 01:42 | -13.74202 | -76.21953 | 43 ft | 3 kts | 296° |
| 2026-05-08 01:42 | -13.74190 | -76.21974 | 43 ft | 4 kts | 303° |
| 2026-05-08 01:42 | -13.74167 | -76.21999 | 43 ft | 5 kts | 345° |
| 2026-05-08 01:42 | -13.74134 | -76.21978 | 43 ft | 6 kts | 41° |
| 2026-05-08 01:43 | -13.74080 | -76.21933 | 44 ft | 13 kts | 39° |
| 2026-05-08 01:43 | -13.73985 | -76.21853 | 45 ft | 20 kts | 40° |
| 2026-05-08 01:43 | -13.73879 | -76.21761 | 46 ft | 18 kts | 38° |
| 2026-05-08 01:43 | -13.73838 | -76.21729 | 46 ft | 6 kts | 31° |
| 2026-05-08 01:44 | -13.73794 | -76.21737 | 46 ft | 7 kts | 307° |
| 2026-05-08 01:44 | -13.73780 | -76.21795 | 45 ft | 8 kts | 286° |
| 2026-05-08 01:44 | -13.73765 | -76.21864 | 44 ft | 10 kts | 279° |
| 2026-05-08 01:44 | -13.73753 | -76.21934 | 43 ft | 8 kts | 284° |
| 2026-05-08 01:45 | -13.73735 | -76.21983 | 43 ft | 6 kts | 295° |
| 2026-05-08 01:45 | -13.73718 | -76.22004 | 42 ft | 0 kts | 283° |
| 2026-05-08 01:45 | -13.73723 | -76.22012 | 43 ft | 0 kts | 165° |
| 2026-05-08 01:45 | -13.73727 | -76.22008 | 43 ft | 0 kts | 111° |